sensor_id;sensor_type;location;lat;lon;timestamp;P1;durP1;ratioP1;P2;durP2;ratioP2
64865;SDS011;51347;41.994;21.402;2022-09-09T00:01:16;9.40;;;7.95;;
64865;SDS011;51347;41.994;21.402;2022-09-09T00:06:17;9.27;;;7.63;;
64865;SDS011;51347;41.994;21.402;2022-09-09T00:11:29;7.68;;;6.88;;
64865;SDS011;51347;41.994;21.402;2022-09-09T00:13:56;8.27;;;6.90;;
64865;SDS011;51347;41.994;21.402;2022-09-09T00:16:27;9.77;;;7.55;;
64865;SDS011;51347;41.994;21.402;2022-09-09T00:21:49;8.98;;;7.40;;
64865;SDS011;51347;41.994;21.402;2022-09-09T00:24:41;9.80;;;6.97;;
64865;SDS011;51347;41.994;21.402;2022-09-09T00:27:24;10.38;;;8.15;;
64865;SDS011;51347;41.994;21.402;2022-09-09T00:32:20;11.65;;;7.45;;
64865;SDS011;51347;41.994;21.402;2022-09-09T00:34:51;9.35;;;6.70;;
64865;SDS011;51347;41.994;21.402;2022-09-09T00:37:18;8.02;;;7.18;;
64865;SDS011;51347;41.994;21.402;2022-09-09T00:39:45;8.63;;;7.00;;
64865;SDS011;51347;41.994;21.402;2022-09-09T00:44:37;13.15;;;8.23;;
64865;SDS011;51347;41.994;21.402;2022-09-09T00:47:27;11.77;;;8.50;;
64865;SDS011;51347;41.994;21.402;2022-09-09T00:52:43;11.57;;;7.75;;
64865;SDS011;51347;41.994;21.402;2022-09-09T00:55:16;10.45;;;8.27;;
64865;SDS011;51347;41.994;21.402;2022-09-09T00:57:43;11.85;;;7.60;;
64865;SDS011;51347;41.994;21.402;2022-09-09T01:00:24;9.15;;;7.15;;
64865;SDS011;51347;41.994;21.402;2022-09-09T01:05:34;9.52;;;7.45;;
64865;SDS011;51347;41.994;21.402;2022-09-09T01:08:02;9.50;;;7.47;;
64865;SDS011;51347;41.994;21.402;2022-09-09T01:10:41;12.55;;;8.15;;
64865;SDS011;51347;41.994;21.402;2022-09-09T01:13:28;14.35;;;8.55;;
64865;SDS011;51347;41.994;21.402;2022-09-09T01:16:03;9.18;;;7.72;;
64865;SDS011;51347;41.994;21.402;2022-09-09T01:18:29;10.23;;;7.63;;
64865;SDS011;51347;41.994;21.402;2022-09-09T01:26:10;9.88;;;7.80;;
64865;SDS011;51347;41.994;21.402;2022-09-09T01:28:37;11.65;;;8.05;;
64865;SDS011;51347;41.994;21.402;2022-09-09T01:31:04;10.40;;;7.72;;
64865;SDS011;51347;41.994;21.402;2022-09-09T01:33:31;10.38;;;7.75;;
64865;SDS011;51347;41.994;21.402;2022-09-09T01:36:39;9.52;;;7.78;;
64865;SDS011;51347;41.994;21.402;2022-09-09T01:38:45;8.27;;;7.25;;
64865;SDS011;51347;41.994;21.402;2022-09-09T01:41:10;8.30;;;7.28;;
64865;SDS011;51347;41.994;21.402;2022-09-09T01:43:35;8.10;;;6.97;;
64865;SDS011;51347;41.994;21.402;2022-09-09T01:46:01;8.25;;;6.93;;
64865;SDS011;51347;41.994;21.402;2022-09-09T01:48:27;8.55;;;7.40;;
64865;SDS011;51347;41.994;21.402;2022-09-09T01:50:52;9.10;;;7.28;;
64865;SDS011;51347;41.994;21.402;2022-09-09T01:53:18;10.10;;;6.68;;
64865;SDS011;51347;41.994;21.402;2022-09-09T01:58:52;8.80;;;6.97;;
64865;SDS011;51347;41.994;21.402;2022-09-09T02:01:37;9.35;;;7.32;;
64865;SDS011;51347;41.994;21.402;2022-09-09T02:04:09;10.85;;;7.47;;
64865;SDS011;51347;41.994;21.402;2022-09-09T02:06:39;12.65;;;7.47;;
64865;SDS011;51347;41.994;21.402;2022-09-09T02:09:06;13.73;;;8.00;;
64865;SDS011;51347;41.994;21.402;2022-09-09T02:11:32;12.07;;;8.63;;
64865;SDS011;51347;41.994;21.402;2022-09-09T02:14:00;10.30;;;7.25;;
64865;SDS011;51347;41.994;21.402;2022-09-09T02:16:40;10.35;;;7.20;;
64865;SDS011;51347;41.994;21.402;2022-09-09T02:19:14;9.15;;;7.60;;
64865;SDS011;51347;41.994;21.402;2022-09-09T02:21:42;11.18;;;7.45;;
64865;SDS011;51347;41.994;21.402;2022-09-09T02:24:09;10.02;;;8.18;;
64865;SDS011;51347;41.994;21.402;2022-09-09T02:26:38;8.95;;;7.80;;
64865;SDS011;51347;41.994;21.402;2022-09-09T02:29:06;10.25;;;8.45;;
64865;SDS011;51347;41.994;21.402;2022-09-09T02:31:32;10.50;;;7.63;;
64865;SDS011;51347;41.994;21.402;2022-09-09T02:34:01;8.38;;;7.03;;
64865;SDS011;51347;41.994;21.402;2022-09-09T02:36:27;10.18;;;7.95;;
64865;SDS011;51347;41.994;21.402;2022-09-09T02:38:54;9.27;;;7.15;;
64865;SDS011;51347;41.994;21.402;2022-09-09T02:41:22;8.65;;;7.63;;
64865;SDS011;51347;41.994;21.402;2022-09-09T02:43:48;10.32;;;7.93;;
64865;SDS011;51347;41.994;21.402;2022-09-09T02:48:52;11.38;;;7.78;;
64865;SDS011;51347;41.994;21.402;2022-09-09T02:52:08;9.50;;;7.95;;
64865;SDS011;51347;41.994;21.402;2022-09-09T02:56:34;11.68;;;9.23;;
64865;SDS011;51347;41.994;21.402;2022-09-09T02:59:02;8.82;;;7.90;;
64865;SDS011;51347;41.994;21.402;2022-09-09T03:01:28;10.40;;;8.27;;
64865;SDS011;51347;41.994;21.402;2022-09-09T03:03:54;11.68;;;8.73;;
64865;SDS011;51347;41.994;21.402;2022-09-09T03:06:20;11.88;;;9.18;;
64865;SDS011;51347;41.994;21.402;2022-09-09T03:08:45;10.77;;;8.77;;
64865;SDS011;51347;41.994;21.402;2022-09-09T03:11:10;12.48;;;9.25;;
64865;SDS011;51347;41.994;21.402;2022-09-09T03:13:35;10.77;;;8.50;;
64865;SDS011;51347;41.994;21.402;2022-09-09T03:16:01;9.27;;;8.23;;
64865;SDS011;51347;41.994;21.402;2022-09-09T03:18:29;9.38;;;8.40;;
64865;SDS011;51347;41.994;21.402;2022-09-09T03:20:54;9.75;;;8.70;;
64865;SDS011;51347;41.994;21.402;2022-09-09T03:23:19;9.55;;;8.05;;
64865;SDS011;51347;41.994;21.402;2022-09-09T03:25:47;9.30;;;8.27;;
64865;SDS011;51347;41.994;21.402;2022-09-09T03:28:13;8.98;;;8.05;;
64865;SDS011;51347;41.994;21.402;2022-09-09T03:30:38;11.52;;;8.43;;
64865;SDS011;51347;41.994;21.402;2022-09-09T03:33:03;13.88;;;9.73;;
64865;SDS011;51347;41.994;21.402;2022-09-09T03:35:29;9.48;;;8.32;;
64865;SDS011;51347;41.994;21.402;2022-09-09T03:37:54;14.35;;;9.27;;
64865;SDS011;51347;41.994;21.402;2022-09-09T03:40:20;14.82;;;9.98;;
64865;SDS011;51347;41.994;21.402;2022-09-09T03:42:45;12.07;;;9.43;;
64865;SDS011;51347;41.994;21.402;2022-09-09T03:45:11;12.02;;;9.13;;
64865;SDS011;51347;41.994;21.402;2022-09-09T03:47:36;12.57;;;8.73;;
64865;SDS011;51347;41.994;21.402;2022-09-09T03:50:02;9.98;;;8.48;;
64865;SDS011;51347;41.994;21.402;2022-09-09T03:52:29;8.93;;;8.02;;
64865;SDS011;51347;41.994;21.402;2022-09-09T03:54:54;10.63;;;7.82;;
64865;SDS011;51347;41.994;21.402;2022-09-09T03:57:20;8.88;;;7.93;;
64865;SDS011;51347;41.994;21.402;2022-09-09T03:59:46;11.77;;;8.68;;
64865;SDS011;51347;41.994;21.402;2022-09-09T04:02:11;10.00;;;8.05;;
64865;SDS011;51347;41.994;21.402;2022-09-09T04:04:37;12.75;;;9.73;;
64865;SDS011;51347;41.994;21.402;2022-09-09T04:07:02;10.63;;;9.32;;
64865;SDS011;51347;41.994;21.402;2022-09-09T04:09:27;12.48;;;8.63;;
64865;SDS011;51347;41.994;21.402;2022-09-09T04:11:53;10.00;;;8.27;;
64865;SDS011;51347;41.994;21.402;2022-09-09T04:14:18;9.52;;;7.35;;
64865;SDS011;51347;41.994;21.402;2022-09-09T04:16:43;12.90;;;8.43;;
64865;SDS011;51347;41.994;21.402;2022-09-09T04:19:09;13.32;;;9.23;;
64865;SDS011;51347;41.994;21.402;2022-09-09T04:21:37;13.45;;;9.82;;
64865;SDS011;51347;41.994;21.402;2022-09-09T04:24:04;12.85;;;9.05;;
64865;SDS011;51347;41.994;21.402;2022-09-09T04:26:29;13.98;;;9.93;;
64865;SDS011;51347;41.994;21.402;2022-09-09T04:28:55;9.82;;;8.43;;
64865;SDS011;51347;41.994;21.402;2022-09-09T04:31:21;15.32;;;10.80;;
64865;SDS011;51347;41.994;21.402;2022-09-09T04:33:48;15.30;;;10.10;;
64865;SDS011;51347;41.994;21.402;2022-09-09T04:36:14;11.07;;;9.02;;
64865;SDS011;51347;41.994;21.402;2022-09-09T04:38:39;11.20;;;9.43;;
64865;SDS011;51347;41.994;21.402;2022-09-09T04:41:05;9.98;;;8.93;;
64865;SDS011;51347;41.994;21.402;2022-09-09T04:43:30;10.80;;;8.73;;
64865;SDS011;51347;41.994;21.402;2022-09-09T04:45:55;13.07;;;10.25;;
64865;SDS011;51347;41.994;21.402;2022-09-09T04:48:21;13.07;;;9.63;;
64865;SDS011;51347;41.994;21.402;2022-09-09T04:53:21;11.18;;;9.20;;
64865;SDS011;51347;41.994;21.402;2022-09-09T04:55:47;12.60;;;8.77;;
64865;SDS011;51347;41.994;21.402;2022-09-09T04:58:12;12.10;;;9.60;;
64865;SDS011;51347;41.994;21.402;2022-09-09T05:00:38;11.43;;;9.30;;
64865;SDS011;51347;41.994;21.402;2022-09-09T05:03:06;11.55;;;8.65;;
64865;SDS011;51347;41.994;21.402;2022-09-09T05:05:33;14.80;;;9.68;;
64865;SDS011;51347;41.994;21.402;2022-09-09T05:08:02;10.98;;;9.10;;
64865;SDS011;51347;41.994;21.402;2022-09-09T05:10:28;10.68;;;8.90;;
64865;SDS011;51347;41.994;21.402;2022-09-09T05:12:53;10.35;;;9.00;;
64865;SDS011;51347;41.994;21.402;2022-09-09T05:15:19;9.98;;;8.63;;
64865;SDS011;51347;41.994;21.402;2022-09-09T05:17:45;12.00;;;8.90;;
64865;SDS011;51347;41.994;21.402;2022-09-09T05:20:11;11.23;;;9.20;;
64865;SDS011;51347;41.994;21.402;2022-09-09T05:22:37;13.02;;;10.85;;
64865;SDS011;51347;41.994;21.402;2022-09-09T05:25:02;10.68;;;9.15;;
64865;SDS011;51347;41.994;21.402;2022-09-09T05:27:28;13.02;;;9.02;;
64865;SDS011;51347;41.994;21.402;2022-09-09T05:29:53;14.15;;;10.35;;
64865;SDS011;51347;41.994;21.402;2022-09-09T05:32:18;12.00;;;9.57;;
64865;SDS011;51347;41.994;21.402;2022-09-09T05:34:43;14.00;;;10.90;;
64865;SDS011;51347;41.994;21.402;2022-09-09T05:37:09;15.07;;;10.07;;
64865;SDS011;51347;41.994;21.402;2022-09-09T05:39:34;13.13;;;9.82;;
64865;SDS011;51347;41.994;21.402;2022-09-09T05:42:01;12.73;;;9.65;;
64865;SDS011;51347;41.994;21.402;2022-09-09T05:44:29;16.75;;;10.57;;
64865;SDS011;51347;41.994;21.402;2022-09-09T05:46:54;11.90;;;8.50;;
64865;SDS011;51347;41.994;21.402;2022-09-09T05:49:19;15.68;;;10.00;;
64865;SDS011;51347;41.994;21.402;2022-09-09T05:51:45;13.55;;;10.63;;
64865;SDS011;51347;41.994;21.402;2022-09-09T05:54:11;19.65;;;15.02;;
64865;SDS011;51347;41.994;21.402;2022-09-09T05:56:39;27.55;;;18.30;;
64865;SDS011;51347;41.994;21.402;2022-09-09T05:59:05;18.52;;;15.35;;
64865;SDS011;51347;41.994;21.402;2022-09-09T06:01:32;20.00;;;15.90;;
64865;SDS011;51347;41.994;21.402;2022-09-09T06:03:58;21.25;;;16.60;;
64865;SDS011;51347;41.994;21.402;2022-09-09T06:06:24;19.20;;;13.38;;
64865;SDS011;51347;41.994;21.402;2022-09-09T06:08:51;19.88;;;13.57;;
64865;SDS011;51347;41.994;21.402;2022-09-09T06:11:21;19.30;;;13.68;;
64865;SDS011;51347;41.994;21.402;2022-09-09T06:13:47;20.75;;;14.60;;
64865;SDS011;51347;41.994;21.402;2022-09-09T06:16:13;25.83;;;17.63;;
64865;SDS011;51347;41.994;21.402;2022-09-09T06:18:39;26.45;;;17.95;;
64865;SDS011;51347;41.994;21.402;2022-09-09T06:21:06;25.83;;;19.80;;
64865;SDS011;51347;41.994;21.402;2022-09-09T06:23:32;25.88;;;18.77;;
64865;SDS011;51347;41.994;21.402;2022-09-09T06:26:01;23.95;;;17.45;;
64865;SDS011;51347;41.994;21.402;2022-09-09T06:28:26;21.80;;;12.98;;
64865;SDS011;51347;41.994;21.402;2022-09-09T06:30:59;21.83;;;16.23;;
64865;SDS011;51347;41.994;21.402;2022-09-09T06:33:24;21.08;;;14.65;;
64865;SDS011;51347;41.994;21.402;2022-09-09T06:35:53;29.27;;;18.25;;
64865;SDS011;51347;41.994;21.402;2022-09-09T06:38:18;18.88;;;13.23;;
64865;SDS011;51347;41.994;21.402;2022-09-09T06:40:50;21.60;;;15.13;;
64865;SDS011;51347;41.994;21.402;2022-09-09T06:43:16;17.35;;;11.70;;
64865;SDS011;51347;41.994;21.402;2022-09-09T06:45:42;28.90;;;13.68;;
64865;SDS011;51347;41.994;21.402;2022-09-09T06:48:07;23.52;;;14.75;;
64865;SDS011;51347;41.994;21.402;2022-09-09T06:50:33;18.45;;;13.10;;
64865;SDS011;51347;41.994;21.402;2022-09-09T06:52:59;18.95;;;13.55;;
64865;SDS011;51347;41.994;21.402;2022-09-09T06:55:25;17.58;;;11.13;;
64865;SDS011;51347;41.994;21.402;2022-09-09T06:57:50;18.63;;;12.43;;
64865;SDS011;51347;41.994;21.402;2022-09-09T07:00:16;14.48;;;10.30;;
64865;SDS011;51347;41.994;21.402;2022-09-09T07:02:43;15.55;;;10.65;;
64865;SDS011;51347;41.994;21.402;2022-09-09T07:05:09;18.58;;;10.27;;
64865;SDS011;51347;41.994;21.402;2022-09-09T07:07:34;15.32;;;9.68;;
64865;SDS011;51347;41.994;21.402;2022-09-09T07:10:00;13.98;;;9.52;;
64865;SDS011;51347;41.994;21.402;2022-09-09T07:12:25;12.32;;;8.90;;
64865;SDS011;51347;41.994;21.402;2022-09-09T07:14:50;14.07;;;9.25;;
64865;SDS011;51347;41.994;21.402;2022-09-09T07:17:15;12.32;;;8.32;;
64865;SDS011;51347;41.994;21.402;2022-09-09T07:19:41;11.77;;;8.68;;
64865;SDS011;51347;41.994;21.402;2022-09-09T07:22:09;15.20;;;9.00;;
64865;SDS011;51347;41.994;21.402;2022-09-09T07:24:35;14.00;;;9.23;;
64865;SDS011;51347;41.994;21.402;2022-09-09T07:27:01;12.90;;;8.13;;
64865;SDS011;51347;41.994;21.402;2022-09-09T07:29:27;13.25;;;9.13;;
64865;SDS011;51347;41.994;21.402;2022-09-09T07:31:52;10.52;;;7.35;;
64865;SDS011;51347;41.994;21.402;2022-09-09T07:34:18;11.95;;;8.35;;
64865;SDS011;51347;41.994;21.402;2022-09-09T07:36:44;14.52;;;8.75;;
64865;SDS011;51347;41.994;21.402;2022-09-09T07:39:10;14.48;;;9.95;;
64865;SDS011;51347;41.994;21.402;2022-09-09T07:41:37;15.02;;;10.05;;
64865;SDS011;51347;41.994;21.402;2022-09-09T07:44:07;15.38;;;9.07;;
64865;SDS011;51347;41.994;21.402;2022-09-09T07:46:32;17.98;;;9.57;;
64865;SDS011;51347;41.994;21.402;2022-09-09T07:48:59;10.65;;;8.15;;
64865;SDS011;51347;41.994;21.402;2022-09-09T07:51:26;14.02;;;8.77;;
64865;SDS011;51347;41.994;21.402;2022-09-09T07:53:53;13.45;;;8.15;;
64865;SDS011;51347;41.994;21.402;2022-09-09T07:56:19;11.55;;;7.90;;
64865;SDS011;51347;41.994;21.402;2022-09-09T07:58:47;11.77;;;7.57;;
64865;SDS011;51347;41.994;21.402;2022-09-09T08:04:07;17.63;;;10.77;;
64865;SDS011;51347;41.994;21.402;2022-09-09T08:06:37;15.00;;;10.15;;
64865;SDS011;51347;41.994;21.402;2022-09-09T08:09:02;28.67;;;17.33;;
64865;SDS011;51347;41.994;21.402;2022-09-09T08:11:28;14.32;;;8.10;;
64865;SDS011;51347;41.994;21.402;2022-09-09T08:13:54;12.02;;;8.15;;
64865;SDS011;51347;41.994;21.402;2022-09-09T08:16:21;11.55;;;7.70;;
64865;SDS011;51347;41.994;21.402;2022-09-09T08:18:47;13.45;;;8.90;;
64865;SDS011;51347;41.994;21.402;2022-09-09T08:21:14;13.73;;;9.07;;
64865;SDS011;51347;41.994;21.402;2022-09-09T08:23:40;15.05;;;8.02;;
64865;SDS011;51347;41.994;21.402;2022-09-09T08:29:01;10.25;;;7.85;;
64865;SDS011;51347;41.994;21.402;2022-09-09T08:31:35;11.88;;;9.23;;
64865;SDS011;51347;41.994;21.402;2022-09-09T08:34:02;10.20;;;6.78;;
64865;SDS011;51347;41.994;21.402;2022-09-09T08:36:31;11.90;;;6.53;;
64865;SDS011;51347;41.994;21.402;2022-09-09T08:38:58;12.73;;;7.63;;
64865;SDS011;51347;41.994;21.402;2022-09-09T08:51:53;16.38;;;8.30;;
64865;SDS011;51347;41.994;21.402;2022-09-09T08:54:20;10.88;;;7.45;;
64865;SDS011;51347;41.994;21.402;2022-09-09T08:56:45;9.02;;;7.13;;
64865;SDS011;51347;41.994;21.402;2022-09-09T08:59:11;11.93;;;7.13;;
64865;SDS011;51347;41.994;21.402;2022-09-09T09:01:45;12.57;;;6.60;;
64865;SDS011;51347;41.994;21.402;2022-09-09T09:07:02;7.30;;;6.15;;
64865;SDS011;51347;41.994;21.402;2022-09-09T09:12:14;10.40;;;6.00;;
64865;SDS011;51347;41.994;21.402;2022-09-09T09:14:40;11.65;;;7.00;;
64865;SDS011;51347;41.994;21.402;2022-09-09T09:17:18;14.02;;;6.22;;
64865;SDS011;51347;41.994;21.402;2022-09-09T09:19:44;9.70;;;6.15;;
64865;SDS011;51347;41.994;21.402;2022-09-09T09:24:45;12.85;;;6.45;;
64865;SDS011;51347;41.994;21.402;2022-09-09T09:27:18;9.30;;;6.65;;
64865;SDS011;51347;41.994;21.402;2022-09-09T09:29:45;12.77;;;7.50;;
64865;SDS011;51347;41.994;21.402;2022-09-09T09:32:13;11.85;;;7.32;;
64865;SDS011;51347;41.994;21.402;2022-09-09T09:34:40;8.77;;;6.35;;
64865;SDS011;51347;41.994;21.402;2022-09-09T09:37:16;12.93;;;6.88;;
64865;SDS011;51347;41.994;21.402;2022-09-09T09:39:44;14.20;;;7.25;;
64865;SDS011;51347;41.994;21.402;2022-09-09T09:42:14;9.80;;;6.50;;
64865;SDS011;51347;41.994;21.402;2022-09-09T09:44:40;8.27;;;5.75;;
64865;SDS011;51347;41.994;21.402;2022-09-09T09:47:17;11.57;;;6.50;;
64865;SDS011;51347;41.994;21.402;2022-09-09T09:49:55;11.48;;;6.38;;
64865;SDS011;51347;41.994;21.402;2022-09-09T09:52:28;11.90;;;5.80;;
64865;SDS011;51347;41.994;21.402;2022-09-09T09:54:54;10.48;;;5.57;;
64865;SDS011;51347;41.994;21.402;2022-09-09T09:57:27;11.18;;;5.68;;
64865;SDS011;51347;41.994;21.402;2022-09-09T10:00:01;10.60;;;5.95;;
64865;SDS011;51347;41.994;21.402;2022-09-09T10:02:36;10.10;;;6.03;;
64865;SDS011;51347;41.994;21.402;2022-09-09T10:07:27;9.35;;;4.95;;
64865;SDS011;51347;41.994;21.402;2022-09-09T10:09:55;9.88;;;4.97;;
64865;SDS011;51347;41.994;21.402;2022-09-09T10:12:44;7.10;;;5.50;;
64865;SDS011;51347;41.994;21.402;2022-09-09T10:17:51;8.48;;;6.00;;
64865;SDS011;51347;41.994;21.402;2022-09-09T10:41:07;8.05;;;5.75;;
64865;SDS011;51347;41.994;21.402;2022-09-09T10:51:43;11.20;;;6.50;;
64865;SDS011;51347;41.994;21.402;2022-09-09T10:56:36;6.70;;;5.97;;
64865;SDS011;51347;41.994;21.402;2022-09-09T11:01:29;10.35;;;6.82;;
64865;SDS011;51347;41.994;21.402;2022-09-09T11:03:57;9.95;;;6.28;;
64865;SDS011;51347;41.994;21.402;2022-09-09T11:06:33;11.73;;;7.13;;
64865;SDS011;51347;41.994;21.402;2022-09-09T11:09:00;12.13;;;8.13;;
64865;SDS011;51347;41.994;21.402;2022-09-09T11:16:22;10.98;;;6.90;;
64865;SDS011;51347;41.994;21.402;2022-09-09T11:18:49;13.20;;;7.28;;
64865;SDS011;51347;41.994;21.402;2022-09-09T11:21:25;10.25;;;7.57;;
64865;SDS011;51347;41.994;21.402;2022-09-09T11:23:54;10.82;;;7.20;;
64865;SDS011;51347;41.994;21.402;2022-09-09T11:26:25;12.43;;;7.63;;
64865;SDS011;51347;41.994;21.402;2022-09-09T11:37:17;10.50;;;6.78;;
64865;SDS011;51347;41.994;21.402;2022-09-09T11:39:53;10.32;;;6.93;;
64865;SDS011;51347;41.994;21.402;2022-09-09T11:42:23;11.65;;;6.70;;
64865;SDS011;51347;41.994;21.402;2022-09-09T11:44:49;9.75;;;6.90;;
64865;SDS011;51347;41.994;21.402;2022-09-09T11:47:22;10.65;;;6.88;;
64865;SDS011;51347;41.994;21.402;2022-09-09T11:49:51;16.48;;;8.18;;
64865;SDS011;51347;41.994;21.402;2022-09-09T11:52:23;10.65;;;7.65;;
64865;SDS011;51347;41.994;21.402;2022-09-09T11:54:52;12.63;;;6.72;;
64865;SDS011;51347;41.994;21.402;2022-09-09T11:57:56;11.27;;;7.75;;
64865;SDS011;51347;41.994;21.402;2022-09-09T12:05:19;9.67;;;7.07;;
64865;SDS011;51347;41.994;21.402;2022-09-09T12:07:49;8.70;;;6.20;;
64865;SDS011;51347;41.994;21.402;2022-09-09T12:10:20;9.32;;;7.13;;
64865;SDS011;51347;41.994;21.402;2022-09-09T12:12:48;10.73;;;7.95;;
64865;SDS011;51347;41.994;21.402;2022-09-09T12:17:46;11.30;;;7.68;;
64865;SDS011;51347;41.994;21.402;2022-09-09T12:20:14;10.20;;;7.68;;
64865;SDS011;51347;41.994;21.402;2022-09-09T12:23:02;10.68;;;6.28;;
64865;SDS011;51347;41.994;21.402;2022-09-09T12:28:00;11.02;;;7.70;;
64865;SDS011;51347;41.994;21.402;2022-09-09T12:33:18;10.10;;;6.82;;
64865;SDS011;51347;41.994;21.402;2022-09-09T12:35:45;10.95;;;6.85;;
64865;SDS011;51347;41.994;21.402;2022-09-09T12:38:13;12.18;;;7.18;;
64865;SDS011;51347;41.994;21.402;2022-09-09T12:40:40;12.55;;;7.25;;
64865;SDS011;51347;41.994;21.402;2022-09-09T12:43:18;8.98;;;7.45;;
64865;SDS011;51347;41.994;21.402;2022-09-09T12:45:44;11.45;;;6.80;;
64865;SDS011;51347;41.994;21.402;2022-09-09T12:48:10;9.75;;;7.28;;
64865;SDS011;51347;41.994;21.402;2022-09-09T12:50:37;10.20;;;6.10;;
64865;SDS011;51347;41.994;21.402;2022-09-09T12:53:06;12.68;;;7.07;;
64865;SDS011;51347;41.994;21.402;2022-09-09T12:55:32;9.75;;;7.25;;
64865;SDS011;51347;41.994;21.402;2022-09-09T12:58:00;17.17;;;8.75;;
64865;SDS011;51347;41.994;21.402;2022-09-09T13:00:30;12.07;;;7.50;;
64865;SDS011;51347;41.994;21.402;2022-09-09T13:03:00;12.27;;;9.00;;
64865;SDS011;51347;41.994;21.402;2022-09-09T13:05:34;9.98;;;7.13;;
64865;SDS011;51347;41.994;21.402;2022-09-09T13:08:08;12.88;;;9.27;;
64865;SDS011;51347;41.994;21.402;2022-09-09T13:10:43;10.63;;;7.10;;
64865;SDS011;51347;41.994;21.402;2022-09-09T13:13:15;12.82;;;7.05;;
64865;SDS011;51347;41.994;21.402;2022-09-09T13:15:48;10.38;;;7.00;;
64865;SDS011;51347;41.994;21.402;2022-09-09T13:18:14;13.68;;;7.53;;
64865;SDS011;51347;41.994;21.402;2022-09-09T13:20:45;16.45;;;7.65;;
64865;SDS011;51347;41.994;21.402;2022-09-09T13:23:11;20.38;;;7.85;;
64865;SDS011;51347;41.994;21.402;2022-09-09T13:25:36;11.00;;;7.07;;
64865;SDS011;51347;41.994;21.402;2022-09-09T13:28:05;13.23;;;8.07;;
64865;SDS011;51347;41.994;21.402;2022-09-09T13:30:31;15.88;;;7.57;;
64865;SDS011;51347;41.994;21.402;2022-09-09T13:33:01;12.15;;;7.90;;
64865;SDS011;51347;41.994;21.402;2022-09-09T13:35:27;10.70;;;6.97;;
64865;SDS011;51347;41.994;21.402;2022-09-09T13:37:52;13.02;;;7.38;;
64865;SDS011;51347;41.994;21.402;2022-09-09T13:40:19;10.90;;;6.03;;
64865;SDS011;51347;41.994;21.402;2022-09-09T13:42:45;11.82;;;6.70;;
64865;SDS011;51347;41.994;21.402;2022-09-09T13:45:24;10.38;;;6.30;;
64865;SDS011;51347;41.994;21.402;2022-09-09T13:47:51;9.80;;;5.70;;
64865;SDS011;51347;41.994;21.402;2022-09-09T13:52:46;7.93;;;5.38;;
64865;SDS011;51347;41.994;21.402;2022-09-09T13:55:12;6.25;;;5.60;;
64865;SDS011;51347;41.994;21.402;2022-09-09T13:57:37;12.23;;;6.00;;
64865;SDS011;51347;41.994;21.402;2022-09-09T14:00:03;7.45;;;5.65;;
64865;SDS011;51347;41.994;21.402;2022-09-09T14:02:34;9.68;;;5.68;;
64865;SDS011;51347;41.994;21.402;2022-09-09T14:07:25;10.07;;;6.15;;
64865;SDS011;51347;41.994;21.402;2022-09-09T14:09:54;9.27;;;5.57;;
64865;SDS011;51347;41.994;21.402;2022-09-09T14:12:20;7.05;;;5.97;;
64865;SDS011;51347;41.994;21.402;2022-09-09T14:14:45;12.73;;;6.95;;
64865;SDS011;51347;41.994;21.402;2022-09-09T14:17:10;12.98;;;6.57;;
64865;SDS011;51347;41.994;21.402;2022-09-09T14:19:36;9.20;;;5.70;;
64865;SDS011;51347;41.994;21.402;2022-09-09T14:22:02;8.98;;;5.95;;
64865;SDS011;51347;41.994;21.402;2022-09-09T14:24:28;12.73;;;6.07;;
64865;SDS011;51347;41.994;21.402;2022-09-09T14:26:53;12.60;;;5.40;;
64865;SDS011;51347;41.994;21.402;2022-09-09T14:29:19;9.70;;;5.78;;
64865;SDS011;51347;41.994;21.402;2022-09-09T14:31:44;7.57;;;6.20;;
64865;SDS011;51347;41.994;21.402;2022-09-09T14:34:10;15.60;;;6.82;;
64865;SDS011;51347;41.994;21.402;2022-09-09T14:36:36;12.10;;;5.43;;
64865;SDS011;51347;41.994;21.402;2022-09-09T14:39:01;13.32;;;6.47;;
64865;SDS011;51347;41.994;21.402;2022-09-09T14:41:26;12.48;;;5.85;;
64865;SDS011;51347;41.994;21.402;2022-09-09T14:43:52;12.68;;;5.03;;
64865;SDS011;51347;41.994;21.402;2022-09-09T14:46:19;8.93;;;4.88;;
64865;SDS011;51347;41.994;21.402;2022-09-09T14:48:45;8.43;;;4.55;;
64865;SDS011;51347;41.994;21.402;2022-09-09T14:51:23;10.70;;;5.65;;
64865;SDS011;51347;41.994;21.402;2022-09-09T14:53:52;9.85;;;5.70;;
64865;SDS011;51347;41.994;21.402;2022-09-09T14:56:22;11.32;;;5.03;;
64865;SDS011;51347;41.994;21.402;2022-09-09T14:58:48;12.63;;;4.38;;
64865;SDS011;51347;41.994;21.402;2022-09-09T15:01:14;7.05;;;4.10;;
64865;SDS011;51347;41.994;21.402;2022-09-09T15:03:41;9.90;;;5.03;;
64865;SDS011;51347;41.994;21.402;2022-09-09T15:06:10;8.07;;;4.25;;
64865;SDS011;51347;41.994;21.402;2022-09-09T15:08:36;9.45;;;3.88;;
64865;SDS011;51347;41.994;21.402;2022-09-09T15:11:02;9.27;;;4.00;;
64865;SDS011;51347;41.994;21.402;2022-09-09T15:13:29;6.38;;;4.05;;
64865;SDS011;51347;41.994;21.402;2022-09-09T15:15:54;6.78;;;3.85;;
64865;SDS011;51347;41.994;21.402;2022-09-09T15:18:20;10.15;;;4.53;;
64865;SDS011;51347;41.994;21.402;2022-09-09T15:20:45;7.22;;;3.92;;
64865;SDS011;51347;41.994;21.402;2022-09-09T15:23:11;7.00;;;3.67;;
64865;SDS011;51347;41.994;21.402;2022-09-09T15:25:37;8.43;;;3.63;;
64865;SDS011;51347;41.994;21.402;2022-09-09T15:28:02;5.90;;;2.70;;
64865;SDS011;51347;41.994;21.402;2022-09-09T15:30:27;6.35;;;3.30;;
64865;SDS011;51347;41.994;21.402;2022-09-09T15:32:52;8.15;;;4.15;;
64865;SDS011;51347;41.994;21.402;2022-09-09T15:35:18;4.95;;;4.32;;
64865;SDS011;51347;41.994;21.402;2022-09-09T15:37:43;7.57;;;4.40;;
64865;SDS011;51347;41.994;21.402;2022-09-09T15:40:10;13.73;;;6.35;;
64865;SDS011;51347;41.994;21.402;2022-09-09T15:42:35;18.13;;;5.50;;
64865;SDS011;51347;41.994;21.402;2022-09-09T15:45:00;8.88;;;4.13;;
64865;SDS011;51347;41.994;21.402;2022-09-09T15:47:26;9.55;;;6.18;;
64865;SDS011;51347;41.994;21.402;2022-09-09T15:49:52;7.32;;;4.60;;
64865;SDS011;51347;41.994;21.402;2022-09-09T15:52:18;6.25;;;3.90;;
64865;SDS011;51347;41.994;21.402;2022-09-09T15:54:43;9.43;;;4.32;;
64865;SDS011;51347;41.994;21.402;2022-09-09T15:57:10;5.85;;;3.80;;
64865;SDS011;51347;41.994;21.402;2022-09-09T15:59:37;6.47;;;3.53;;
64865;SDS011;51347;41.994;21.402;2022-09-09T16:02:03;7.25;;;3.65;;
64865;SDS011;51347;41.994;21.402;2022-09-09T16:04:28;7.03;;;3.83;;
64865;SDS011;51347;41.994;21.402;2022-09-09T16:07:01;7.03;;;3.88;;
64865;SDS011;51347;41.994;21.402;2022-09-09T16:09:27;10.43;;;6.78;;
64865;SDS011;51347;41.994;21.402;2022-09-09T16:11:52;7.72;;;5.60;;
64865;SDS011;51347;41.994;21.402;2022-09-09T16:14:18;13.57;;;5.40;;
64865;SDS011;51347;41.994;21.402;2022-09-09T16:16:44;5.95;;;5.30;;
64865;SDS011;51347;41.994;21.402;2022-09-09T16:19:11;11.93;;;4.30;;
64865;SDS011;51347;41.994;21.402;2022-09-09T16:21:47;5.25;;;3.80;;
64865;SDS011;51347;41.994;21.402;2022-09-09T16:24:13;6.35;;;4.22;;
64865;SDS011;51347;41.994;21.402;2022-09-09T16:26:40;6.22;;;3.92;;
64865;SDS011;51347;41.994;21.402;2022-09-09T16:29:08;7.38;;;4.30;;
64865;SDS011;51347;41.994;21.402;2022-09-09T16:31:33;10.07;;;4.30;;
64865;SDS011;51347;41.994;21.402;2022-09-09T16:33:59;9.18;;;4.72;;
64865;SDS011;51347;41.994;21.402;2022-09-09T16:36:28;8.43;;;4.38;;